createdAt,value
2023-02-09T00:01:08.530Z,-2.40
2023-02-09T00:03:36.929Z,-2.40
2023-02-09T00:06:04.398Z,-2.50
2023-02-09T00:08:31.929Z,-2.50
2023-02-09T00:11:00.243Z,-2.50
2023-02-09T00:13:27.767Z,-2.50
2023-02-09T00:15:56.072Z,-2.60
2023-02-09T00:18:23.665Z,-2.60
2023-02-09T00:21:06.413Z,-2.60
2023-02-09T00:23:33.968Z,-2.70
2023-02-09T00:26:01.598Z,-2.70
2023-02-09T00:28:29.073Z,-2.70
2023-02-09T00:30:56.641Z,-2.70
2023-02-09T00:33:24.140Z,-2.70
2023-02-09T00:35:51.673Z,-2.70
2023-02-09T00:38:19.994Z,-2.70
2023-02-09T00:40:47.518Z,-2.70
2023-02-09T00:43:15.054Z,-2.70
2023-02-09T00:45:42.703Z,-2.80
2023-02-09T00:48:10.924Z,-2.80
2023-02-09T00:50:38.475Z,-2.80
2023-02-09T00:53:06.022Z,-2.90
2023-02-09T00:55:34.340Z,-2.90
2023-02-09T00:58:01.885Z,-2.90
2023-02-09T01:00:29.462Z,-2.90
2023-02-09T01:02:57.003Z,-3.00
2023-02-09T01:05:24.523Z,-3.00
2023-02-09T01:07:53.088Z,-3.10
2023-02-09T01:10:20.586Z,-3.10
2023-02-09T01:12:48.120Z,-3.10
2023-02-09T01:15:16.726Z,-3.20
2023-02-09T01:17:44.280Z,-3.20
2023-02-09T01:20:11.961Z,-3.20
2023-02-09T01:22:39.545Z,-3.30
2023-02-09T01:25:07.119Z,-3.30
2023-02-09T01:27:34.676Z,-3.40
2023-02-09T01:30:02.279Z,-3.40
2023-02-09T01:32:30.589Z,-2.80
2023-02-09T01:34:58.113Z,-2.80
2023-02-09T01:37:25.659Z,-2.90
2023-02-09T01:39:53.996Z,-3.10
2023-02-09T01:42:21.534Z,-3.20
2023-02-09T01:44:59.040Z,-3.20
2023-02-09T01:47:26.595Z,-3.20
2023-02-09T01:49:54.115Z,-3.20
2023-02-09T01:52:22.450Z,-3.30
2023-02-09T01:54:56.136Z,-3.30
2023-02-09T01:57:23.663Z,-3.30
2023-02-09T01:59:51.235Z,-3.40
2023-02-09T02:02:18.794Z,-3.40
2023-02-09T02:04:47.057Z,-3.50
2023-02-09T02:07:17.336Z,-3.60
2023-02-09T02:09:44.869Z,-3.60
2023-02-09T02:12:12.394Z,-3.60
2023-02-09T02:14:39.969Z,-3.70
2023-02-09T02:17:28.392Z,-3.70
2023-02-09T02:20:14.576Z,-3.80
2023-02-09T02:23:01.163Z,-3.90
2023-02-09T02:25:47.118Z,-3.90
2023-02-09T02:28:38.764Z,-3.90
2023-02-09T02:31:09.621Z,-3.90
2023-02-09T02:33:43.792Z,-3.60
2023-02-09T02:36:29.404Z,-3.60
2023-02-09T02:39:08.300Z,-3.70
2023-02-09T02:41:38.315Z,-3.80
2023-02-09T02:44:08.553Z,-3.90
2023-02-09T02:46:53.878Z,-3.90
2023-02-09T02:49:31.225Z,-4.00
2023-02-09T02:51:58.797Z,-4.10
2023-02-09T02:54:26.321Z,-4.10
2023-02-09T02:56:53.898Z,-3.80
2023-02-09T02:59:24.191Z,-3.50
2023-02-09T03:02:03.443Z,-3.60
2023-02-09T03:04:30.996Z,-3.70
2023-02-09T03:06:58.550Z,-3.80
2023-02-09T03:09:26.097Z,-3.80
2023-02-09T03:11:53.700Z,-3.90
2023-02-09T03:14:29.918Z,-3.90
2023-02-09T03:17:27.877Z,-4.00
2023-02-09T03:19:58.917Z,-4.00
2023-02-09T03:22:29.909Z,-4.10
2023-02-09T03:24:57.425Z,-4.10
2023-02-09T03:27:25.761Z,-4.20
2023-02-09T03:29:53.259Z,-4.20
2023-02-09T03:32:20.841Z,-4.20
2023-02-09T03:34:48.380Z,-4.20
2023-02-09T03:37:16.680Z,-4.30
2023-02-09T03:39:44.290Z,-4.30
2023-02-09T03:42:11.801Z,-4.30
2023-02-09T03:44:39.350Z,-4.40
2023-02-09T03:47:06.928Z,-4.40
2023-02-09T03:49:34.512Z,-4.40
2023-02-09T03:52:02.062Z,-4.40
2023-02-09T03:54:29.650Z,-4.40
2023-02-09T03:56:57.198Z,-4.20
2023-02-09T03:59:27.381Z,-4.20
2023-02-09T04:01:54.939Z,-4.00
2023-02-09T04:04:22.474Z,-4.00
2023-02-09T04:06:49.998Z,-4.10
2023-02-09T04:09:17.565Z,-4.20
2023-02-09T04:11:45.866Z,-4.40
2023-02-09T04:14:13.403Z,-4.40
2023-02-09T04:16:40.944Z,-4.50
2023-02-09T04:19:08.480Z,-4.60
2023-02-09T04:21:36.151Z,-4.60
2023-02-09T04:24:03.670Z,-4.60
2023-02-09T04:26:31.202Z,-4.70
2023-02-09T04:28:59.508Z,-4.70
2023-02-09T04:31:27.234Z,-4.70
2023-02-09T04:33:54.615Z,-4.50
2023-02-09T04:36:22.141Z,-4.50
2023-02-09T04:38:49.717Z,-4.60
2023-02-09T04:41:18.030Z,-4.50
2023-02-09T04:43:48.283Z,-4.50
2023-02-09T04:46:15.958Z,-4.20
2023-02-09T04:48:44.182Z,-4.40
2023-02-09T04:51:11.709Z,-4.40
2023-02-09T04:53:40.532Z,-4.60
2023-02-09T04:56:08.052Z,-4.60
2023-02-09T04:58:54.521Z,-4.70
2023-02-09T05:01:22.110Z,-4.70
2023-02-09T05:03:49.613Z,-4.70
2023-02-09T05:06:17.190Z,-4.80
2023-02-09T05:08:44.734Z,-4.80
2023-02-09T05:11:12.287Z,-4.80
2023-02-09T05:13:40.163Z,-4.90
2023-02-09T05:16:07.770Z,-4.90
2023-02-09T05:18:35.254Z,-5.00
2023-02-09T05:21:02.839Z,-5.00
2023-02-09T05:23:30.377Z,-5.00
2023-02-09T05:25:57.911Z,-5.10
2023-02-09T05:28:25.550Z,-5.10
2023-02-09T05:30:53.132Z,-5.10
2023-02-09T05:33:23.249Z,-5.20
2023-02-09T05:35:51.876Z,-5.20
2023-02-09T05:38:19.412Z,-5.20
2023-02-09T05:40:48.061Z,-5.20
2023-02-09T05:43:15.259Z,-5.20
2023-02-09T05:45:42.814Z,-5.20
2023-02-09T05:48:11.086Z,-5.20
2023-02-09T05:50:38.663Z,-5.20
2023-02-09T05:53:06.194Z,-5.20
2023-02-09T05:55:34.509Z,-5.30
2023-02-09T05:58:02.097Z,-5.30
2023-02-09T06:00:29.629Z,-5.30
2023-02-09T06:02:57.190Z,-5.30
2023-02-09T06:05:24.739Z,-5.10
2023-02-09T06:07:53.259Z,-5.20
2023-02-09T06:10:20.836Z,-5.20
2023-02-09T06:12:48.406Z,-5.30
2023-02-09T06:17:52.715Z,-5.40
2023-02-09T06:20:20.234Z,-5.40
2023-02-09T06:22:47.780Z,-5.20
2023-02-09T06:25:15.746Z,-4.80
2023-02-09T06:27:43.293Z,-4.90
2023-02-09T06:30:11.822Z,-5.10
2023-02-09T06:32:39.408Z,-5.10
2023-02-09T06:35:06.955Z,-5.20
2023-02-09T06:37:34.481Z,-5.20
2023-02-09T06:40:02.065Z,-5.20
2023-02-09T06:42:29.598Z,-5.20
2023-02-09T06:44:57.206Z,-5.20
2023-02-09T06:47:24.766Z,-5.00
2023-02-09T06:49:53.068Z,-4.70
2023-02-09T06:52:20.614Z,-4.70
2023-02-09T06:54:48.966Z,-4.90
2023-02-09T06:57:16.520Z,-4.90
2023-02-09T06:59:44.057Z,-5.00
2023-02-09T07:02:11.639Z,-4.80
2023-02-09T07:04:39.182Z,-4.50
2023-02-09T07:07:06.718Z,-4.70
2023-02-09T07:09:34.302Z,-4.90
2023-02-09T07:12:01.825Z,-5.00
2023-02-09T07:14:29.352Z,-5.00
2023-02-09T07:16:57.675Z,-5.10
2023-02-09T07:19:25.208Z,-5.20
2023-02-09T07:21:52.734Z,-5.20
2023-02-09T07:24:20.357Z,-5.20
2023-02-09T07:26:47.900Z,-5.20
2023-02-09T07:29:15.449Z,-5.00
2023-02-09T07:31:43.180Z,-4.70
2023-02-09T07:34:10.554Z,-4.30
2023-02-09T07:36:38.866Z,-4.50
2023-02-09T07:39:06.439Z,-4.60
2023-02-09T07:41:33.963Z,-4.60
2023-02-09T07:44:01.487Z,-4.70
2023-02-09T07:46:29.145Z,-4.70
2023-02-09T07:48:56.626Z,-4.80
2023-02-09T07:51:27.658Z,-4.70
2023-02-09T07:53:55.208Z,-4.80
2023-02-09T07:56:23.503Z,-4.70
2023-02-09T07:58:51.789Z,-4.60
2023-02-09T08:01:19.400Z,-4.60
2023-02-09T08:03:46.939Z,-4.60
2023-02-09T08:06:41.967Z,-4.50
2023-02-09T08:09:03.477Z,-4.50
2023-02-09T08:11:44.635Z,-4.40
2023-02-09T08:14:13.920Z,-4.20
2023-02-09T08:16:41.470Z,-4.20
2023-02-09T08:19:09.055Z,-4.10
2023-02-09T08:21:36.600Z,-4.10
2023-02-09T08:24:04.125Z,-4.10
2023-02-09T08:26:32.477Z,-4.00
2023-02-09T08:29:00.047Z,-4.00
2023-02-09T08:31:27.622Z,-3.90
2023-02-09T08:33:55.935Z,-3.50
2023-02-09T08:36:23.462Z,-3.50
2023-02-09T08:38:51.755Z,-3.50
2023-02-09T08:41:19.330Z,-3.50
2023-02-09T08:43:50.012Z,-3.40
2023-02-09T08:46:17.648Z,-3.40
2023-02-09T08:48:45.126Z,-3.30
2023-02-09T08:51:12.669Z,-3.30
2023-02-09T08:53:40.218Z,-3.20
2023-02-09T08:56:07.781Z,-3.20
2023-02-09T08:58:35.328Z,-3.10
2023-02-09T09:01:02.950Z,-3.00
2023-02-09T09:03:30.514Z,-3.00
2023-02-09T09:05:58.009Z,-2.80
2023-02-09T09:08:25.535Z,-2.70
2023-02-09T09:10:53.109Z,-2.60
2023-02-09T09:13:20.692Z,-2.50
2023-02-09T09:15:48.601Z,-2.30
2023-02-09T09:18:15.812Z,-2.20
2023-02-09T09:20:43.360Z,-2.10
2023-02-09T09:23:10.913Z,-2.00
2023-02-09T09:25:41.420Z,-1.90
2023-02-09T09:28:09.035Z,-1.80
2023-02-09T09:30:37.274Z,-1.60
2023-02-09T09:33:04.921Z,-1.60
2023-02-09T09:35:32.398Z,-1.50
2023-02-09T09:37:59.924Z,-1.40
2023-02-09T09:40:28.262Z,-1.10
2023-02-09T09:42:55.809Z,-1.20
2023-02-09T09:45:23.353Z,-1.00
2023-02-09T09:47:51.212Z,-0.90
2023-02-09T09:50:18.752Z,-0.80
2023-02-09T09:52:47.050Z,-0.50
2023-02-09T09:55:14.616Z,-0.50
2023-02-09T09:57:45.090Z,-0.40
2023-02-09T10:00:18.641Z,-0.30
2023-02-09T10:02:46.501Z,-0.10
2023-02-09T10:05:14.029Z,0.00
2023-02-09T10:07:42.329Z,0.20
2023-02-09T10:10:13.001Z,0.20
2023-02-09T10:12:40.555Z,0.20
2023-02-09T10:15:29.224Z,0.30
2023-02-09T10:17:56.755Z,0.40
2023-02-09T10:20:42.382Z,0.50
2023-02-09T10:23:16.922Z,1.00
2023-02-09T10:26:03.633Z,1.10
2023-02-09T10:28:31.979Z,1.20
2023-02-09T10:30:59.537Z,1.20
2023-02-09T10:33:27.011Z,1.30
2023-02-09T10:35:55.314Z,1.40
2023-02-09T10:38:22.838Z,1.40
2023-02-09T10:40:51.176Z,1.60
2023-02-09T10:43:21.389Z,1.60
2023-02-09T10:45:49.227Z,1.70
2023-02-09T10:48:19.256Z,1.80
2023-02-09T10:50:58.541Z,1.90
2023-02-09T10:53:37.838Z,2.00
2023-02-09T10:56:05.375Z,2.10
2023-02-09T10:58:35.636Z,2.10
2023-02-09T11:01:11.990Z,2.20
2023-02-09T11:03:39.546Z,2.20
2023-02-09T11:06:15.984Z,2.30
2023-02-09T11:08:46.339Z,2.40
2023-02-09T11:11:19.691Z,2.50
2023-02-09T11:13:48.044Z,2.60
2023-02-09T11:16:53.064Z,2.60
2023-02-09T11:19:20.726Z,2.70
2023-02-09T11:22:03.244Z,3.00
2023-02-09T11:24:36.768Z,3.20
2023-02-09T11:27:05.060Z,3.30
2023-02-09T11:29:33.354Z,3.30
2023-02-09T11:32:03.833Z,3.30
2023-02-09T11:34:35.403Z,3.40
2023-02-09T11:37:24.250Z,3.40
2023-02-09T11:39:57.534Z,3.50
2023-02-09T11:42:43.101Z,3.60
2023-02-09T11:45:10.654Z,3.70
2023-02-09T11:47:50.216Z,3.80
2023-02-09T11:50:20.736Z,3.90
2023-02-09T11:52:48.259Z,4.10
2023-02-09T11:55:15.842Z,4.20
2023-02-09T11:57:46.139Z,4.30
2023-02-09T12:00:16.452Z,4.40
2023-02-09T12:02:49.819Z,4.50
2023-02-09T12:05:17.333Z,4.60
2023-02-09T12:08:05.893Z,4.70
2023-02-09T12:10:36.378Z,4.70
2023-02-09T12:13:09.455Z,4.80
2023-02-09T12:15:46.384Z,5.00
2023-02-09T12:18:19.411Z,5.00
2023-02-09T12:20:58.935Z,5.10
2023-02-09T12:23:41.488Z,5.20
2023-02-09T12:26:18.032Z,5.30
2023-02-09T12:28:48.956Z,5.70
2023-02-09T12:31:22.050Z,5.70
2023-02-09T12:33:50.254Z,5.70
2023-02-09T12:36:29.790Z,5.80
2023-02-09T12:39:23.703Z,5.80
2023-02-09T12:41:49.332Z,5.90
2023-02-09T12:44:16.845Z,6.00
2023-02-09T12:46:47.173Z,6.00
2023-02-09T12:49:14.746Z,6.10
2023-02-09T12:51:51.259Z,6.20
2023-02-09T12:54:42.949Z,6.20
2023-02-09T12:57:16.812Z,6.30
2023-02-09T12:59:53.278Z,6.30
2023-02-09T13:02:26.833Z,6.30
2023-02-09T13:05:18.688Z,6.30
2023-02-09T13:07:52.287Z,6.40
2023-02-09T13:10:44.194Z,6.40
2023-02-09T13:13:11.756Z,6.60
2023-02-09T13:15:48.583Z,6.50
2023-02-09T13:18:34.347Z,6.50
2023-02-09T13:21:04.820Z,6.50
2023-02-09T13:23:38.367Z,6.50
2023-02-09T13:26:23.944Z,6.50
2023-02-09T13:29:18.417Z,6.60
2023-02-09T13:31:34.185Z,6.80
2023-02-09T13:34:01.658Z,6.90
2023-02-09T13:36:43.917Z,7.10
2023-02-09T13:39:23.838Z,7.00
2023-02-09T13:41:51.456Z,7.00
2023-02-09T13:44:28.494Z,6.90
2023-02-09T13:46:59.628Z,6.80
2023-02-09T13:49:27.168Z,6.80
2023-02-09T13:52:10.230Z,6.80
2023-02-09T13:54:37.734Z,7.00
2023-02-09T13:57:05.241Z,7.00
2023-02-09T13:59:33.594Z,7.20
2023-02-09T14:02:01.163Z,7.20
2023-02-09T14:04:28.684Z,7.10
2023-02-09T14:06:59.201Z,7.30
2023-02-09T14:09:26.738Z,7.30
2023-02-09T14:11:55.049Z,7.20
2023-02-09T14:14:25.583Z,7.20
2023-02-09T14:17:24.351Z,7.10
2023-02-09T14:19:39.494Z,7.10
2023-02-09T14:22:06.972Z,7.30
2023-02-09T14:24:40.461Z,7.30
2023-02-09T14:27:20.748Z,7.20
2023-02-09T14:29:48.292Z,7.10
2023-02-09T14:32:34.201Z,7.20
2023-02-09T14:35:25.809Z,7.10
2023-02-09T14:37:53.401Z,7.10
2023-02-09T14:40:36.248Z,7.10
2023-02-09T14:43:07.386Z,7.30
2023-02-09T14:45:41.404Z,7.30
2023-02-09T14:48:21.830Z,7.30
2023-02-09T14:50:49.370Z,7.20
2023-02-09T14:53:16.908Z,7.20
2023-02-09T14:55:44.899Z,7.20
2023-02-09T14:58:12.025Z,7.20
2023-02-09T15:00:39.560Z,7.10
2023-02-09T15:03:07.982Z,7.10
2023-02-09T15:05:35.498Z,7.00
2023-02-09T15:08:05.713Z,7.00
2023-02-09T15:10:31.371Z,7.00
2023-02-09T15:12:58.908Z,7.00
2023-02-09T15:15:26.488Z,7.00
2023-02-09T15:17:54.006Z,7.00
2023-02-09T15:20:22.320Z,7.00
2023-02-09T15:22:49.846Z,7.00
2023-02-09T15:25:18.204Z,6.90
2023-02-09T15:27:51.209Z,6.90
2023-02-09T15:30:13.367Z,6.90
2023-02-09T15:32:40.942Z,6.90
2023-02-09T15:35:08.609Z,6.80
2023-02-09T15:37:36.130Z,6.80
2023-02-09T15:40:12.877Z,6.80
2023-02-09T15:43:01.304Z,6.70
2023-02-09T15:45:46.998Z,6.70
2023-02-09T15:48:14.547Z,6.90
2023-02-09T15:50:42.097Z,6.80
2023-02-09T15:53:09.710Z,6.80
2023-02-09T15:55:37.221Z,6.70
2023-02-09T15:58:04.750Z,6.70
2023-02-09T16:00:32.358Z,6.60
2023-02-09T16:03:00.017Z,6.60
2023-02-09T16:05:27.423Z,6.60
2023-02-09T16:07:54.989Z,6.50
2023-02-09T16:10:28.612Z,6.40
2023-02-09T16:12:56.152Z,6.40
2023-02-09T16:15:23.751Z,6.30
2023-02-09T16:17:51.257Z,6.30
2023-02-09T16:20:18.781Z,6.20
2023-02-09T16:22:46.328Z,6.10
2023-02-09T16:25:19.807Z,6.00
2023-02-09T16:27:47.354Z,5.90
2023-02-09T16:30:14.940Z,5.80
2023-02-09T16:32:42.482Z,5.70
2023-02-09T16:35:16.655Z,5.60
2023-02-09T16:37:37.885Z,5.50
2023-02-09T16:40:17.389Z,5.40
2023-02-09T16:42:48.343Z,5.30
2023-02-09T16:45:13.255Z,5.30
2023-02-09T16:47:40.831Z,5.20
2023-02-09T16:50:14.374Z,5.10
2023-02-09T16:52:41.905Z,5.10
2023-02-09T16:55:11.941Z,5.00
2023-02-09T16:57:39.542Z,4.90
2023-02-09T17:00:07.297Z,5.10
2023-02-09T17:02:44.412Z,5.00
2023-02-09T17:05:27.080Z,5.00
2023-02-09T17:07:55.469Z,4.90
2023-02-09T17:10:22.957Z,4.90
2023-02-09T17:12:52.595Z,4.90
2023-02-09T17:15:29.472Z,4.70
2023-02-09T17:17:47.152Z,4.60
2023-02-09T17:20:17.395Z,4.60
2023-02-09T17:22:45.373Z,4.50
2023-02-09T17:25:15.634Z,4.40
2023-02-09T17:27:43.148Z,4.20
2023-02-09T17:30:10.966Z,4.10
2023-02-09T17:32:39.262Z,4.20
2023-02-09T17:35:09.635Z,4.20
2023-02-09T17:37:37.572Z,4.10
2023-02-09T17:40:05.186Z,4.00
2023-02-09T17:42:32.745Z,3.80
2023-02-09T17:45:00.428Z,3.80
2023-02-09T17:47:27.919Z,3.90
2023-02-09T17:49:55.469Z,3.90
2023-02-09T17:52:23.053Z,4.00
2023-02-09T17:54:50.601Z,3.90
2023-02-09T17:57:18.177Z,3.80
2023-02-09T17:59:45.752Z,3.60
2023-02-09T18:02:15.982Z,3.50
2023-02-09T18:04:43.518Z,3.40
2023-02-09T18:07:11.101Z,3.30
2023-02-09T18:09:38.647Z,3.20
2023-02-09T18:12:08.937Z,3.10
2023-02-09T18:14:36.509Z,3.00
2023-02-09T18:17:04.094Z,2.90
2023-02-09T18:19:31.646Z,2.80
2023-02-09T18:21:59.259Z,3.10
2023-02-09T18:24:26.762Z,3.10
2023-02-09T18:26:54.278Z,2.90
2023-02-09T18:29:21.860Z,2.90
2023-02-09T18:31:49.414Z,2.70
2023-02-09T18:34:16.952Z,2.70
2023-02-09T18:36:44.535Z,2.60
2023-02-09T18:39:12.060Z,2.60
2023-02-09T18:41:39.604Z,2.50
2023-02-09T18:44:08.016Z,2.30
2023-02-09T18:46:35.587Z,2.30
2023-02-09T18:49:03.728Z,2.20
2023-02-09T18:51:31.458Z,1.90
2023-02-09T18:53:58.988Z,1.90
2023-02-09T18:56:26.521Z,1.90
2023-02-09T18:58:54.163Z,2.10
2023-02-09T19:01:21.711Z,2.10
2023-02-09T19:03:52.326Z,1.90
2023-02-09T19:06:19.913Z,1.80
2023-02-09T19:08:47.446Z,2.00
2023-02-09T19:11:14.984Z,1.90
2023-02-09T19:13:42.845Z,1.80
2023-02-09T19:16:10.438Z,1.90
2023-02-09T19:18:37.925Z,2.20
2023-02-09T19:21:06.761Z,2.30
2023-02-09T19:23:33.358Z,2.50
2023-02-09T19:26:00.913Z,2.30
2023-02-09T19:28:29.322Z,1.80
2023-02-09T19:30:56.840Z,1.80
2023-02-09T19:33:24.352Z,1.70
2023-02-09T19:35:57.635Z,1.50
2023-02-09T19:38:25.245Z,1.70
2023-02-09T19:41:05.085Z,1.60
2023-02-09T19:43:21.339Z,1.30
2023-02-09T19:45:48.831Z,1.30
2023-02-09T19:48:16.157Z,1.20
2023-02-09T19:50:43.746Z,1.40
2023-02-09T19:53:11.296Z,1.60
2023-02-09T19:55:38.811Z,1.40
2023-02-09T19:58:06.776Z,1.30
2023-02-09T20:00:34.305Z,1.40
2023-02-09T20:03:02.662Z,1.10
2023-02-09T20:05:30.176Z,1.10
2023-02-09T20:07:57.696Z,1.00
2023-02-09T20:10:26.012Z,0.70
2023-02-09T20:12:53.582Z,0.70
2023-02-09T20:15:21.125Z,0.60
2023-02-09T20:17:48.659Z,0.50
2023-02-09T20:20:16.998Z,0.40
2023-02-09T20:22:44.526Z,0.40
2023-02-09T20:25:12.101Z,0.40
2023-02-09T20:27:39.672Z,0.30
2023-02-09T20:30:07.439Z,0.30
2023-02-09T20:32:34.952Z,0.20
2023-02-09T20:35:02.526Z,0.20
2023-02-09T20:37:30.072Z,0.40
2023-02-09T20:39:57.587Z,0.40
2023-02-09T20:42:43.315Z,0.30
2023-02-09T20:45:28.863Z,0.20
2023-02-09T20:47:56.432Z,0.10
2023-02-09T20:50:24.727Z,0.00
2023-02-09T20:52:52.271Z,0.00
2023-02-09T20:55:20.584Z,0.00
2023-02-09T20:57:48.108Z,-0.10
2023-02-09T21:00:15.764Z,-0.10
2023-02-09T21:02:43.417Z,-0.10
2023-02-09T21:05:11.663Z,-0.10
2023-02-09T21:07:39.204Z,-0.10
2023-02-09T21:10:06.800Z,-0.10
2023-02-09T21:12:34.330Z,0.10
2023-02-09T21:15:01.857Z,0.10
2023-02-09T21:17:29.434Z,0.30
2023-02-09T21:19:56.963Z,0.30
2023-02-09T21:22:24.488Z,0.10
2023-02-09T21:24:52.063Z,0.00
2023-02-09T21:27:19.639Z,-0.10
2023-02-09T21:29:47.181Z,-0.20
2023-02-09T21:32:14.759Z,-0.30
2023-02-09T21:34:42.297Z,-0.40
2023-02-09T21:37:10.628Z,-0.20
2023-02-09T21:39:38.189Z,-0.30
2023-02-09T21:42:23.859Z,-0.40
2023-02-09T21:44:51.457Z,-0.50
2023-02-09T21:47:18.985Z,-0.60
2023-02-09T21:49:46.515Z,-0.60
2023-02-09T21:52:15.121Z,-0.40
2023-02-09T21:54:42.657Z,-0.50
2023-02-09T21:57:10.211Z,-0.50
2023-02-09T21:59:38.097Z,-0.60
2023-02-09T22:02:05.623Z,-0.70
2023-02-09T22:04:33.976Z,-0.90
2023-02-09T22:07:01.538Z,-0.90
2023-02-09T22:09:29.068Z,-0.90
2023-02-09T22:11:56.606Z,-1.00
2023-02-09T22:14:24.199Z,-1.00
2023-02-09T22:16:51.810Z,-1.10
2023-02-09T22:19:19.298Z,-1.10
2023-02-09T22:21:46.894Z,-1.10
2023-02-09T22:24:14.425Z,-1.20
2023-02-09T22:26:41.971Z,-1.10
2023-02-09T22:29:09.568Z,-0.90
2023-02-09T22:31:37.119Z,-0.90
2023-02-09T22:34:04.652Z,-0.90
2023-02-09T22:36:32.333Z,-0.70
2023-02-09T22:38:59.754Z,-0.40
2023-02-09T22:41:27.288Z,-0.50
2023-02-09T22:43:55.993Z,-0.80
2023-02-09T22:46:23.601Z,-0.80
2023-02-09T22:48:53.563Z,-0.90
2023-02-09T22:51:21.162Z,-1.00
2023-02-09T22:53:48.687Z,-1.00
2023-02-09T22:56:16.216Z,-1.10
2023-02-09T22:58:44.568Z,-1.20
2023-02-09T23:01:12.126Z,-1.20
2023-02-09T23:03:39.688Z,-1.20
2023-02-09T23:06:07.441Z,-1.20
2023-02-09T23:08:34.991Z,-1.20
2023-02-09T23:11:05.535Z,-1.30
2023-02-09T23:13:33.104Z,-1.30
2023-02-09T23:16:15.462Z,-1.40
2023-02-09T23:18:51.701Z,-1.40
2023-02-09T23:21:19.294Z,-1.20
2023-02-09T23:23:46.775Z,-1.20
2023-02-09T23:26:14.345Z,-1.30
2023-02-09T23:28:41.895Z,-1.30
2023-02-09T23:31:09.460Z,-1.10
2023-02-09T23:33:37.009Z,-1.20
2023-02-09T23:36:07.944Z,-1.20
2023-02-09T23:38:35.514Z,-1.30
2023-02-09T23:41:05.944Z,-1.40
2023-02-09T23:43:33.489Z,-1.50
2023-02-09T23:46:01.051Z,-1.50
2023-02-09T23:48:28.627Z,-1.50
2023-02-09T23:51:01.761Z,-1.60
2023-02-09T23:53:30.050Z,-1.70
2023-02-09T23:55:58.235Z,-1.70
2023-02-09T23:58:25.791Z,-1.70
